createdAt,value
2022-08-26T00:01:56.711Z,23.33
2022-08-26T00:04:25.774Z,23.35
2022-08-26T00:06:56.631Z,23.31
2022-08-26T00:09:25.477Z,23.33
2022-08-26T00:11:54.104Z,23.33
2022-08-26T00:14:24.173Z,23.36
2022-08-26T00:16:55.929Z,23.34
2022-08-26T00:19:23.677Z,23.32
2022-08-26T00:21:51.366Z,23.31
2022-08-26T00:24:20.446Z,23.29
2022-08-26T00:26:48.587Z,23.28
2022-08-26T00:29:17.329Z,23.29
2022-08-26T00:31:45.715Z,23.28
2022-08-26T00:34:14.274Z,23.26
2022-08-26T00:36:44.296Z,23.24
2022-08-26T00:39:11.624Z,23.22
2022-08-26T00:41:40.348Z,23.17
2022-08-26T00:44:09.014Z,23.15
2022-08-26T00:46:46.800Z,23.15
2022-08-26T00:49:19.913Z,23.13
2022-08-26T00:51:55.790Z,23.07
2022-08-26T00:54:26.965Z,23.02
2022-08-26T00:57:15.933Z,22.98
2022-08-26T00:59:54.987Z,22.95
2022-08-26T01:02:24.869Z,22.94
2022-08-26T01:04:56.353Z,22.92
2022-08-26T01:07:30.158Z,22.90
2022-08-26T01:10:01.058Z,22.89
2022-08-26T01:12:32.465Z,22.89
2022-08-26T01:15:00.251Z,22.87
2022-08-26T01:17:27.272Z,22.87
2022-08-26T01:20:03.807Z,22.85
2022-08-26T01:22:41.911Z,22.83
2022-08-26T01:25:11.993Z,22.81
2022-08-26T01:27:39.497Z,22.79
2022-08-26T01:30:07.407Z,22.77
2022-08-26T01:32:36.332Z,22.74
2022-08-26T01:35:07.509Z,22.70
2022-08-26T01:37:39.099Z,22.68
2022-08-26T01:40:12.573Z,22.63
2022-08-26T01:42:41.290Z,22.62
2022-08-26T01:45:16.824Z,22.58
2022-08-26T01:47:44.656Z,22.55
2022-08-26T01:50:18.011Z,22.52
2022-08-26T01:52:57.124Z,22.50
2022-08-26T01:55:33.478Z,22.45
2022-08-26T01:58:06.314Z,22.42
2022-08-26T02:00:35.944Z,22.39
2022-08-26T02:03:17.249Z,22.36
2022-08-26T02:06:00.335Z,22.31
2022-08-26T02:08:32.841Z,22.27
2022-08-26T02:11:00.407Z,22.24
2022-08-26T02:13:30.196Z,22.20
2022-08-26T02:16:00.656Z,22.18
2022-08-26T02:18:30.478Z,22.15
2022-08-26T02:20:57.730Z,22.11
2022-08-26T02:23:25.325Z,22.07
2022-08-26T02:26:17.958Z,22.02
2022-08-26T02:28:56.424Z,21.98
2022-08-26T02:31:24.754Z,21.96
2022-08-26T02:33:51.938Z,21.94
2022-08-26T02:36:28.715Z,21.91
2022-08-26T02:38:56.349Z,21.88
2022-08-26T02:41:23.692Z,21.84
2022-08-26T02:43:51.768Z,21.80
2022-08-26T02:46:28.040Z,21.77
2022-08-26T02:48:57.884Z,21.73
2022-08-26T02:51:25.354Z,21.69
2022-08-26T02:53:52.813Z,21.66
2022-08-26T02:56:20.015Z,21.62
2022-08-26T02:58:48.651Z,21.58
2022-08-26T03:01:23.123Z,21.53
2022-08-26T03:03:50.680Z,21.49
2022-08-26T03:06:18.508Z,21.44
2022-08-26T03:08:46.702Z,21.44
2022-08-26T03:11:14.565Z,21.42
2022-08-26T03:13:42.476Z,21.39
2022-08-26T03:16:09.610Z,21.38
2022-08-26T03:18:37.022Z,21.37
2022-08-26T03:21:10.850Z,21.35
2022-08-26T03:23:39.736Z,21.34
2022-08-26T03:26:07.897Z,21.33
2022-08-26T03:29:04.631Z,21.31
2022-08-26T03:31:34.157Z,21.29
2022-08-26T03:34:01.334Z,21.27
2022-08-26T03:36:30.005Z,21.26
2022-08-26T03:38:57.769Z,21.23
2022-08-26T03:41:24.919Z,21.21
2022-08-26T03:43:52.706Z,21.20
2022-08-26T03:46:21.626Z,21.20
2022-08-26T03:48:48.850Z,21.19
2022-08-26T03:51:19.177Z,21.21
2022-08-26T03:53:48.364Z,21.21
2022-08-26T03:56:15.553Z,21.21
2022-08-26T03:58:44.609Z,21.21
2022-08-26T04:01:16.278Z,21.21
2022-08-26T04:03:59.983Z,21.21
2022-08-26T04:06:44.888Z,21.22
2022-08-26T04:09:21.206Z,21.28
2022-08-26T04:11:50.754Z,21.34
2022-08-26T04:14:23.921Z,21.41
2022-08-26T04:16:53.189Z,21.50
2022-08-26T04:19:23.443Z,21.56
2022-08-26T04:21:53.278Z,21.62
2022-08-26T04:24:23.758Z,21.68
2022-08-26T04:26:53.992Z,21.70
2022-08-26T04:29:28.162Z,21.77
2022-08-26T04:31:56.227Z,21.85
2022-08-26T04:34:24.578Z,22.00
2022-08-26T04:36:54.786Z,22.14
2022-08-26T04:39:22.181Z,22.27
2022-08-26T04:41:51.599Z,22.35
2022-08-26T04:44:21.401Z,22.36
2022-08-26T04:46:51.003Z,22.36
2022-08-26T04:49:18.527Z,22.41
2022-08-26T04:51:46.341Z,22.49
2022-08-26T04:54:17.544Z,22.62
2022-08-26T04:56:48.568Z,22.83
2022-08-26T04:59:18.195Z,23.08
2022-08-26T05:01:50.394Z,23.26
2022-08-26T05:04:20.954Z,23.47
2022-08-26T05:06:49.277Z,23.58
2022-08-26T05:09:18.578Z,23.64
2022-08-26T05:11:48.342Z,23.56
2022-08-26T05:14:19.410Z,23.46
2022-08-26T05:16:47.960Z,23.27
2022-08-26T05:19:19.019Z,23.18
2022-08-26T05:21:48.532Z,23.12
2022-08-26T05:24:17.420Z,23.02
2022-08-26T05:26:45.440Z,22.90
2022-08-26T05:29:13.114Z,22.82
2022-08-26T05:31:40.609Z,22.76
2022-08-26T05:34:08.443Z,22.64
2022-08-26T05:36:37.024Z,22.61
2022-08-26T05:39:07.574Z,22.61
2022-08-26T05:41:44.855Z,22.60
2022-08-26T05:44:16.403Z,22.63
2022-08-26T05:46:44.871Z,22.63
2022-08-26T05:49:15.886Z,22.65
2022-08-26T05:51:47.746Z,22.72
2022-08-26T05:54:21.737Z,22.76
2022-08-26T05:56:50.874Z,22.81
2022-08-26T05:59:24.374Z,22.83
2022-08-26T06:01:55.168Z,22.87
2022-08-26T06:04:29.270Z,22.94
2022-08-26T06:06:58.042Z,22.91
2022-08-26T06:09:27.043Z,22.91
2022-08-26T06:11:54.300Z,22.92
2022-08-26T06:14:21.815Z,22.92
2022-08-26T06:16:49.064Z,22.91
2022-08-26T06:19:17.701Z,22.94
2022-08-26T06:21:47.543Z,23.04
2022-08-26T06:24:39.554Z,23.03
2022-08-26T06:27:11.444Z,23.04
2022-08-26T06:29:40.939Z,23.03
2022-08-26T06:32:08.766Z,23.06
2022-08-26T06:34:36.194Z,23.12
2022-08-26T06:37:03.768Z,23.15
2022-08-26T06:39:32.115Z,23.23
2022-08-26T06:42:00.576Z,23.30
2022-08-26T06:44:31.410Z,23.41
2022-08-26T06:47:02.093Z,23.55
2022-08-26T06:49:29.112Z,23.59
2022-08-26T06:51:59.680Z,23.57
2022-08-26T06:54:30.400Z,23.68
2022-08-26T06:56:59.103Z,23.80
2022-08-26T06:59:26.649Z,23.89
2022-08-26T07:01:54.862Z,24.05
2022-08-26T07:04:23.684Z,24.20
2022-08-26T07:06:53.830Z,24.36
2022-08-26T07:09:24.170Z,24.52
2022-08-26T07:11:57.328Z,24.64
2022-08-26T07:14:34.797Z,24.83
2022-08-26T07:17:04.424Z,24.85
2022-08-26T07:19:31.981Z,24.89
2022-08-26T07:22:07.268Z,24.94
2022-08-26T07:24:39.152Z,24.96
2022-08-26T07:27:09.275Z,25.07
2022-08-26T07:29:39.241Z,25.18
2022-08-26T07:32:07.105Z,25.25
2022-08-26T07:34:34.799Z,25.40
2022-08-26T07:37:02.909Z,25.34
2022-08-26T07:39:37.367Z,25.35
2022-08-26T07:42:08.173Z,25.38
2022-08-26T07:44:37.898Z,25.41
2022-08-26T07:47:10.083Z,25.54
2022-08-26T07:49:38.509Z,25.58
2022-08-26T07:52:07.450Z,25.57
2022-08-26T07:54:34.505Z,25.71
2022-08-26T07:57:05.080Z,25.89
2022-08-26T07:59:36.347Z,26.05
2022-08-26T08:02:03.497Z,26.06
2022-08-26T08:04:30.493Z,26.15
2022-08-26T08:06:58.496Z,26.21
2022-08-26T08:09:29.028Z,26.35
2022-08-26T08:11:56.353Z,26.45
2022-08-26T08:14:23.964Z,26.43
2022-08-26T08:16:54.624Z,26.64
2022-08-26T08:19:36.550Z,27.09
2022-08-26T08:22:17.809Z,27.86
2022-08-26T08:24:49.966Z,28.71
2022-08-26T08:27:23.851Z,29.36
2022-08-26T08:29:58.042Z,29.79
2022-08-26T08:32:25.705Z,29.77
2022-08-26T08:34:53.003Z,29.61
2022-08-26T08:37:20.042Z,30.02
2022-08-26T08:39:48.976Z,30.46
2022-08-26T08:42:19.454Z,31.11
2022-08-26T08:44:53.306Z,31.89
2022-08-26T08:47:24.019Z,31.95
2022-08-26T08:49:54.052Z,32.01
2022-08-26T08:52:35.803Z,32.35
2022-08-26T08:55:09.494Z,32.42
2022-08-26T08:58:02.201Z,32.40
2022-08-26T09:00:57.059Z,32.41
2022-08-26T09:03:43.312Z,32.18
2022-08-26T09:06:18.771Z,31.66
2022-08-26T09:08:50.482Z,30.94
2022-08-26T09:11:20.080Z,30.51
2022-08-26T09:13:54.973Z,30.75
2022-08-26T09:16:43.286Z,30.60
2022-08-26T09:19:33.627Z,30.41
2022-08-26T09:22:07.009Z,30.35
2022-08-26T09:24:41.934Z,30.25
2022-08-26T09:27:42.000Z,29.88
2022-08-26T09:30:14.380Z,29.98
2022-08-26T09:32:55.770Z,29.96
2022-08-26T09:35:25.250Z,30.06
2022-08-26T09:37:57.616Z,30.24
2022-08-26T09:40:35.838Z,30.59
2022-08-26T09:43:22.375Z,30.75
2022-08-26T09:45:59.446Z,31.32
2022-08-26T09:48:27.225Z,31.73
2022-08-26T09:50:58.454Z,32.09
2022-08-26T09:53:35.063Z,32.34
2022-08-26T09:59:31.357Z,32.90
2022-08-26T10:02:18.620Z,33.05
2022-08-26T10:04:55.415Z,33.43
2022-08-26T10:07:56.153Z,33.12
2022-08-26T10:10:35.676Z,32.99
2022-08-26T10:13:12.620Z,32.94
2022-08-26T10:16:04.069Z,33.16
2022-08-26T10:18:39.980Z,33.76
2022-08-26T10:21:21.166Z,33.84
2022-08-26T10:23:55.563Z,33.74
2022-08-26T10:26:22.598Z,33.75
2022-08-26T10:29:19.933Z,33.81
2022-08-26T10:32:02.696Z,33.76
2022-08-26T10:34:33.523Z,33.69
2022-08-26T10:37:16.074Z,33.61
2022-08-26T10:39:47.013Z,33.65
2022-08-26T10:42:45.577Z,33.56
2022-08-26T10:45:39.063Z,33.39
2022-08-26T10:48:11.255Z,32.70
2022-08-26T10:50:47.607Z,32.22
2022-08-26T10:53:24.891Z,31.97
2022-08-26T10:56:18.887Z,31.84
2022-08-26T10:59:03.976Z,31.78
2022-08-26T11:01:47.048Z,31.66
2022-08-26T11:04:52.967Z,31.51
2022-08-26T11:07:53.644Z,31.47
2022-08-26T11:10:27.134Z,31.20
2022-08-26T11:13:04.692Z,31.05
2022-08-26T11:15:32.343Z,31.08
2022-08-26T11:18:10.709Z,31.10
2022-08-26T11:20:41.596Z,31.19
2022-08-26T11:23:27.279Z,31.16
2022-08-26T11:26:08.702Z,31.11
2022-08-26T11:28:48.465Z,31.05
2022-08-26T11:31:25.751Z,30.95
2022-08-26T11:34:08.766Z,30.87
2022-08-26T11:36:47.309Z,30.76
2022-08-26T11:39:24.702Z,30.72
2022-08-26T11:42:00.128Z,30.67
2022-08-26T11:44:46.741Z,30.65
2022-08-26T11:47:25.384Z,30.77
2022-08-26T11:50:07.995Z,30.82
2022-08-26T11:52:35.235Z,30.82
2022-08-26T11:55:14.456Z,30.94
2022-08-26T11:57:49.006Z,30.98
2022-08-26T12:00:33.517Z,31.05
2022-08-26T12:03:07.850Z,31.26
2022-08-26T12:05:42.341Z,31.14
2022-08-26T12:08:16.773Z,31.12
2022-08-26T12:10:46.198Z,31.23
2022-08-26T12:13:23.859Z,31.33
2022-08-26T12:15:57.889Z,31.38
2022-08-26T12:18:31.916Z,31.68
2022-08-26T12:21:00.439Z,31.86
2022-08-26T12:23:45.138Z,31.77
2022-08-26T12:26:28.090Z,31.67
2022-08-26T12:29:27.223Z,31.62
2022-08-26T12:32:14.735Z,31.55
2022-08-26T12:34:51.057Z,31.55
2022-08-26T12:37:19.117Z,31.67
2022-08-26T12:39:48.908Z,31.64
2022-08-26T12:42:15.990Z,31.67
2022-08-26T12:44:54.729Z,31.72
2022-08-26T12:47:41.937Z,31.79
2022-08-26T12:50:22.953Z,31.80
2022-08-26T12:53:01.006Z,31.81
2022-08-26T12:55:41.493Z,31.68
2022-08-26T12:58:26.513Z,31.68
2022-08-26T13:00:59.480Z,31.70
2022-08-26T13:03:38.647Z,31.69
2022-08-26T13:06:23.381Z,31.72
2022-08-26T13:08:55.856Z,31.66
2022-08-26T13:11:35.807Z,31.59
2022-08-26T13:14:10.006Z,31.55
2022-08-26T13:16:39.469Z,31.58
2022-08-26T13:19:10.856Z,31.60
2022-08-26T13:21:50.779Z,31.61
2022-08-26T13:24:23.231Z,31.65
2022-08-26T13:26:50.696Z,31.65
2022-08-26T13:29:18.999Z,31.66
2022-08-26T13:31:46.984Z,31.65
2022-08-26T13:34:20.440Z,31.55
2022-08-26T13:36:49.624Z,31.49
2022-08-26T13:39:17.590Z,31.43
2022-08-26T13:41:44.690Z,31.37
2022-08-26T13:44:16.711Z,31.25
2022-08-26T13:49:17.806Z,31.12
2022-08-26T13:51:44.852Z,31.09
2022-08-26T13:54:14.510Z,31.04
2022-08-26T13:56:42.012Z,31.00
2022-08-26T13:59:09.177Z,31.02
2022-08-26T14:01:37.351Z,31.00
2022-08-26T14:04:09.957Z,30.99
2022-08-26T14:06:37.699Z,31.01
2022-08-26T14:09:05.373Z,31.04
2022-08-26T14:11:36.998Z,31.08
2022-08-26T14:14:20.461Z,31.01
2022-08-26T14:16:59.508Z,30.98
2022-08-26T14:19:32.170Z,30.93
2022-08-26T14:22:03.862Z,30.90
2022-08-26T14:24:34.962Z,30.86
2022-08-26T14:27:02.695Z,30.83
2022-08-26T14:29:32.166Z,30.80
2022-08-26T14:32:06.952Z,30.77
2022-08-26T14:34:34.140Z,30.72
2022-08-26T14:37:16.144Z,30.70
2022-08-26T14:39:44.345Z,30.68
2022-08-26T14:42:15.149Z,30.68
2022-08-26T14:44:46.272Z,30.67
2022-08-26T14:47:13.412Z,30.66
2022-08-26T14:49:40.433Z,30.60
2022-08-26T14:52:10.296Z,30.55
2022-08-26T14:54:37.922Z,30.52
2022-08-26T14:57:08.014Z,30.49
2022-08-26T14:59:38.454Z,30.45
2022-08-26T15:02:08.356Z,30.39
2022-08-26T15:04:35.502Z,30.34
2022-08-26T15:07:05.379Z,30.33
2022-08-26T15:09:37.866Z,30.31
2022-08-26T15:12:06.801Z,30.26
2022-08-26T15:14:34.284Z,30.17
2022-08-26T15:17:01.477Z,30.12
2022-08-26T15:19:29.447Z,30.05
2022-08-26T15:21:59.988Z,29.99
2022-08-26T15:24:30.355Z,29.86
2022-08-26T15:26:58.068Z,29.73
2022-08-26T15:29:25.152Z,29.60
2022-08-26T15:31:52.770Z,29.46
2022-08-26T15:34:32.413Z,29.30
2022-08-26T15:37:00.390Z,29.15
2022-08-26T15:39:32.141Z,29.02
2022-08-26T15:42:02.940Z,28.80
2022-08-26T15:44:30.845Z,28.53
2022-08-26T15:49:56.095Z,27.99
2022-08-26T15:52:40.423Z,27.80
2022-08-26T15:55:08.880Z,27.66
2022-08-26T15:57:38.546Z,27.53
2022-08-26T16:00:07.193Z,27.44
2022-08-26T16:02:49.861Z,27.38
2022-08-26T16:05:18.426Z,27.31
2022-08-26T16:07:47.781Z,27.28
2022-08-26T16:10:18.817Z,27.25
2022-08-26T16:12:46.874Z,27.23
2022-08-26T16:15:42.560Z,27.09
2022-08-26T16:18:14.185Z,26.94
2022-08-26T16:21:13.223Z,26.82
2022-08-26T16:26:38.212Z,26.51
2022-08-26T16:29:37.425Z,26.42
2022-08-26T16:32:08.869Z,26.38
2022-08-26T16:34:38.303Z,26.34
2022-08-26T16:37:23.630Z,26.28
2022-08-26T16:39:51.067Z,26.19
2022-08-26T16:42:20.195Z,26.13
2022-08-26T16:44:47.499Z,26.07
2022-08-26T16:47:20.181Z,25.99
2022-08-26T16:49:50.520Z,25.91
2022-08-26T16:52:20.857Z,25.86
2022-08-26T16:54:48.665Z,25.84
2022-08-26T16:57:17.229Z,25.81
2022-08-26T16:59:55.084Z,25.76
2022-08-26T17:02:24.538Z,25.73
2022-08-26T17:04:52.683Z,25.73
2022-08-26T17:07:23.534Z,25.68
2022-08-26T17:09:50.672Z,25.59
2022-08-26T17:12:21.398Z,25.53
2022-08-26T17:14:53.430Z,25.48
2022-08-26T17:18:16.500Z,25.47
2022-08-26T17:20:49.370Z,25.45
2022-08-26T17:23:24.352Z,25.48
2022-08-26T17:25:54.159Z,25.55
2022-08-26T17:28:21.421Z,25.69
2022-08-26T17:30:51.049Z,25.78
2022-08-26T17:33:22.921Z,25.94
2022-08-26T17:35:53.170Z,25.98
2022-08-26T17:38:29.975Z,25.93
2022-08-26T17:40:58.347Z,25.82
2022-08-26T17:43:27.713Z,25.72
2022-08-26T17:46:07.124Z,25.62
2022-08-26T17:48:36.345Z,25.53
2022-08-26T17:51:09.555Z,25.49
2022-08-26T17:53:39.593Z,25.47
2022-08-26T17:56:17.312Z,25.47
2022-08-26T17:58:56.843Z,25.43
2022-08-26T18:01:37.510Z,25.38
2022-08-26T18:04:13.260Z,25.33
2022-08-26T18:06:49.179Z,25.24
2022-08-26T18:09:22.959Z,25.16
2022-08-26T18:11:52.639Z,25.08
2022-08-26T18:14:22.722Z,25.13
2022-08-26T18:16:53.859Z,25.26
2022-08-26T18:19:21.369Z,25.30
2022-08-26T18:21:57.729Z,25.38
2022-08-26T18:24:30.429Z,25.40
2022-08-26T18:26:58.930Z,25.39
2022-08-26T18:29:27.678Z,25.42
2022-08-26T18:31:55.202Z,25.42
2022-08-26T18:34:31.903Z,25.43
2022-08-26T18:37:00.581Z,25.48
2022-08-26T18:39:29.899Z,25.47
2022-08-26T18:42:08.481Z,25.40
2022-08-26T18:44:36.550Z,25.39
2022-08-26T18:47:04.483Z,25.38
2022-08-26T18:49:33.873Z,25.32
2022-08-26T18:52:01.967Z,25.26
2022-08-26T18:54:30.103Z,25.23
2022-08-26T18:57:15.245Z,25.25
2022-08-26T19:03:22.047Z,25.16
2022-08-26T19:10:46.778Z,24.96
2022-08-26T19:14:13.167Z,24.96
2022-08-26T19:19:43.907Z,24.83
2022-08-26T19:26:20.575Z,24.64
2022-08-26T19:30:11.820Z,24.57
2022-08-26T19:32:41.631Z,24.46
2022-08-26T19:35:09.536Z,24.44
2022-08-26T19:37:44.555Z,24.42
2022-08-26T19:40:17.529Z,24.38
2022-08-26T19:42:49.990Z,24.32
2022-08-26T19:45:25.199Z,24.26
2022-08-26T19:47:53.681Z,24.24
2022-08-26T19:50:22.927Z,24.22
2022-08-26T19:52:51.162Z,24.17
2022-08-26T19:55:20.531Z,24.08
2022-08-26T19:57:52.684Z,23.98
2022-08-26T20:00:29.842Z,23.88
2022-08-26T20:02:57.649Z,23.79
2022-08-26T20:05:25.718Z,23.73
2022-08-26T20:07:53.944Z,23.65
2022-08-26T20:10:24.908Z,23.59
2022-08-26T20:12:53.201Z,23.51
2022-08-26T20:15:23.618Z,23.41
2022-08-26T20:17:53.271Z,23.37
2022-08-26T20:20:39.219Z,23.32
2022-08-26T20:23:06.306Z,23.30
2022-08-26T20:25:36.454Z,23.26
2022-08-26T20:28:03.932Z,23.25
2022-08-26T20:30:31.056Z,23.22
2022-08-26T20:32:59.174Z,23.21
2022-08-26T20:35:26.217Z,23.16
2022-08-26T20:37:56.262Z,23.06
2022-08-26T20:40:24.474Z,22.99
2022-08-26T20:42:54.133Z,22.93
2022-08-26T20:45:21.251Z,22.89
2022-08-26T20:47:48.525Z,22.84
2022-08-26T20:50:17.664Z,22.77
2022-08-26T20:52:47.219Z,22.71
2022-08-26T20:55:14.962Z,22.65
2022-08-26T20:57:43.304Z,22.54
2022-08-26T21:00:13.367Z,22.46
2022-08-26T21:02:44.875Z,22.33
2022-08-26T21:05:14.599Z,22.22
2022-08-26T21:07:41.695Z,22.13
2022-08-26T21:10:12.712Z,22.06
2022-08-26T21:12:39.759Z,21.99
2022-08-26T21:15:07.558Z,21.99
2022-08-26T21:17:37.913Z,22.04
2022-08-26T21:20:05.331Z,21.97
2022-08-26T21:22:33.091Z,21.90
2022-08-26T21:25:00.742Z,21.83
2022-08-26T21:27:27.915Z,21.79
2022-08-26T21:29:55.127Z,21.79
2022-08-26T21:32:22.340Z,21.73
2022-08-26T21:34:49.414Z,21.73
2022-08-26T21:37:16.944Z,21.71
2022-08-26T21:39:44.463Z,21.70
2022-08-26T21:42:11.540Z,21.67
2022-08-26T21:44:39.190Z,21.61
2022-08-26T21:47:07.333Z,21.58
2022-08-26T21:49:35.533Z,21.57
2022-08-26T21:52:04.656Z,21.60
2022-08-26T21:54:32.493Z,21.61
2022-08-26T21:57:01.078Z,21.64
2022-08-26T21:59:28.688Z,21.71
2022-08-26T22:01:57.162Z,21.75
2022-08-26T22:04:48.106Z,21.79
2022-08-26T22:07:31.747Z,21.78
2022-08-26T22:09:59.139Z,21.77
2022-08-26T22:12:26.192Z,21.72
2022-08-26T22:14:54.713Z,21.72
2022-08-26T22:17:22.906Z,21.71
2022-08-26T22:19:50.569Z,21.68
2022-08-26T22:22:18.937Z,21.66
2022-08-26T22:24:54.710Z,21.59
2022-08-26T22:27:21.715Z,21.59
2022-08-26T22:29:50.508Z,21.61
2022-08-26T22:32:18.765Z,21.68
2022-08-26T22:34:45.781Z,21.76
2022-08-26T22:37:13.852Z,21.85
2022-08-26T22:39:41.079Z,21.96
2022-08-26T22:42:08.112Z,21.98
2022-08-26T22:44:36.990Z,22.04
2022-08-26T22:47:04.217Z,22.02
2022-08-26T22:49:31.844Z,21.99
2022-08-26T22:51:59.172Z,21.95
2022-08-26T22:54:26.271Z,21.90
2022-08-26T22:56:53.554Z,21.85
2022-08-26T22:59:20.770Z,21.80
2022-08-26T23:01:48.078Z,21.75
2022-08-26T23:04:15.541Z,21.75
2022-08-26T23:06:47.277Z,21.75
2022-08-26T23:09:18.247Z,21.79
2022-08-26T23:11:47.481Z,21.83
2022-08-26T23:14:15.810Z,21.86
2022-08-26T23:16:42.876Z,21.86
2022-08-26T23:19:12.438Z,21.84
2022-08-26T23:21:40.198Z,21.86
2022-08-26T23:24:09.890Z,21.93
2022-08-26T23:26:38.730Z,21.97
2022-08-26T23:29:07.737Z,22.02
2022-08-26T23:31:36.584Z,22.09
2022-08-26T23:34:22.717Z,22.15
2022-08-26T23:36:52.764Z,22.19
2022-08-26T23:39:25.605Z,22.19
2022-08-26T23:41:52.639Z,22.20
2022-08-26T23:44:20.815Z,22.18
2022-08-26T23:46:48.037Z,22.18
2022-08-26T23:49:15.219Z,22.17
2022-08-26T23:52:00.780Z,22.13
2022-08-26T23:54:28.051Z,22.12
2022-08-26T23:56:55.111Z,22.10
2022-08-26T23:59:22.121Z,22.06
